createdAt,value
2019-02-10T00:01:08.536Z,100357.36
2019-02-10T00:03:38.718Z,100355.19
2019-02-10T00:06:08.903Z,100352.12
2019-02-10T00:08:39.046Z,100352.11
2019-02-10T00:11:09.177Z,100343.41
2019-02-10T00:13:40.842Z,100332.55
2019-02-10T00:16:19.861Z,100329.06
2019-02-10T00:18:50.104Z,100326.02
2019-02-10T00:21:20.480Z,100323.39
2019-02-10T00:23:50.658Z,100318.16
2019-02-10T00:26:20.978Z,100316.42
2019-02-10T00:28:51.176Z,100319.47
2019-02-10T00:31:21.331Z,100312.94
2019-02-10T00:33:51.433Z,100312.50
2019-02-10T00:36:21.590Z,100299.89
2019-02-10T00:38:53.002Z,100292.03
2019-02-10T00:41:23.073Z,100293.77
2019-02-10T00:43:55.374Z,100283.73
2019-02-10T00:46:25.616Z,100277.21
2019-02-10T00:48:55.987Z,100277.22
2019-02-10T00:51:26.135Z,100273.28
2019-02-10T00:53:56.412Z,100277.63
2019-02-10T00:56:26.687Z,100268.49
2019-02-10T00:58:57.037Z,100270.22
2019-02-10T01:01:27.283Z,100261.52
2019-02-10T01:03:57.841Z,100250.62
2019-02-10T01:06:28.155Z,100257.57
2019-02-10T01:08:58.370Z,100247.55
2019-02-10T01:11:28.589Z,100245.39
2019-02-10T01:13:59.052Z,100250.19
2019-02-10T01:16:29.367Z,100248.45
2019-02-10T01:19:10.793Z,100241.05
2019-02-10T01:21:46.264Z,100238.02
2019-02-10T01:24:16.543Z,100238.03
2019-02-10T01:26:49.482Z,100235.84
2019-02-10T01:29:19.821Z,100237.59
2019-02-10T01:31:50.017Z,100224.09
2019-02-10T01:34:20.247Z,100231.08
2019-02-10T01:36:50.526Z,100232.38
2019-02-10T01:39:21.762Z,100230.64
2019-02-10T01:41:51.973Z,100225.42
2019-02-10T01:44:22.157Z,100216.72
2019-02-10T01:46:52.385Z,100210.20
2019-02-10T01:49:22.940Z,100206.27
2019-02-10T01:51:53.073Z,100202.35
2019-02-10T01:54:23.378Z,100199.75
2019-02-10T01:56:53.747Z,100197.14
2019-02-10T01:59:23.894Z,100190.61
2019-02-10T02:01:54.062Z,100184.94
2019-02-10T02:04:24.376Z,100175.82
2019-02-10T02:06:57.865Z,100176.66
2019-02-10T02:09:26.673Z,100161.02
2019-02-10T02:11:56.922Z,100164.92
2019-02-10T02:14:27.079Z,100159.72
2019-02-10T02:16:57.290Z,100154.05
2019-02-10T02:19:27.532Z,100152.77
2019-02-10T02:21:57.700Z,100146.64
2019-02-10T02:24:27.913Z,100137.94
2019-02-10T02:26:58.124Z,100139.27
2019-02-10T02:29:28.341Z,100139.70
2019-02-10T02:31:58.598Z,100133.59
2019-02-10T02:34:28.802Z,100127.96
2019-02-10T02:37:07.631Z,100121.84
2019-02-10T02:39:37.448Z,100116.65
2019-02-10T02:42:07.695Z,100107.49
2019-02-10T02:44:37.914Z,100102.70
2019-02-10T02:47:08.199Z,100093.15
2019-02-10T02:49:38.324Z,100090.12
2019-02-10T02:52:08.528Z,100087.51
2019-02-10T02:54:38.841Z,100079.23
2019-02-10T02:57:08.914Z,100080.09
2019-02-10T02:59:39.080Z,100067.48
2019-02-10T03:02:09.168Z,100075.75
2019-02-10T03:04:39.377Z,100064.02
2019-02-10T03:07:17.745Z,100052.70
2019-02-10T03:09:41.676Z,100043.59
2019-02-10T03:12:11.900Z,100035.28
2019-02-10T03:14:42.186Z,100030.49
2019-02-10T03:17:12.424Z,100023.98
2019-02-10T03:19:42.590Z,100017.91
2019-02-10T03:22:12.843Z,100008.77
2019-02-10T03:24:43.063Z,100000.06
2019-02-10T03:27:13.214Z,99993.11
2019-02-10T03:29:43.406Z,99990.05
2019-02-10T03:32:16.385Z,99981.37
2019-02-10T03:34:46.535Z,99977.44
2019-02-10T03:37:16.725Z,99969.20
2019-02-10T03:39:46.975Z,99966.17
2019-02-10T03:42:17.227Z,99960.08
2019-02-10T03:44:47.363Z,99956.16
2019-02-10T03:47:17.516Z,99944.87
2019-02-10T03:49:47.910Z,99945.28
2019-02-10T03:52:18.153Z,99940.50
2019-02-10T03:54:48.374Z,99932.67
2019-02-10T03:57:18.607Z,99925.73
2019-02-10T03:59:48.880Z,99915.30
2019-02-10T04:02:19.095Z,99904.42
2019-02-10T04:04:49.232Z,99907.48
2019-02-10T04:07:19.551Z,99906.59
2019-02-10T04:09:49.772Z,99896.16
2019-02-10T04:12:20.025Z,99893.53
2019-02-10T04:14:50.170Z,99888.32
2019-02-10T04:17:20.320Z,99880.50
2019-02-10T04:19:50.887Z,99873.97
2019-02-10T04:22:21.141Z,99865.27
2019-02-10T04:24:51.287Z,99852.66
2019-02-10T04:27:21.545Z,99854.41
2019-02-10T04:29:54.089Z,99845.72
2019-02-10T04:32:32.517Z,99838.78
2019-02-10T04:35:02.764Z,99833.55
2019-02-10T04:37:32.976Z,99830.52
2019-02-10T04:40:03.149Z,99820.97
2019-02-10T04:42:33.234Z,99808.38
2019-02-10T04:45:03.417Z,99810.98
2019-02-10T04:47:33.578Z,99805.76
2019-02-10T04:50:04.117Z,99793.16
2019-02-10T04:52:34.403Z,99791.00
2019-02-10T04:55:05.258Z,99780.98
2019-02-10T04:57:35.419Z,99771.41
2019-02-10T05:00:07.761Z,99767.50
2019-02-10T05:02:37.902Z,99763.14
2019-02-10T05:05:08.196Z,99745.33
2019-02-10T05:07:38.458Z,99739.23
2019-02-10T05:10:09.556Z,99733.15
2019-02-10T05:12:39.667Z,99722.72
2019-02-10T05:15:09.840Z,99722.69
2019-02-10T05:17:40.021Z,99709.23
2019-02-10T05:20:10.335Z,99698.80
2019-02-10T05:22:40.617Z,99699.21
2019-02-10T05:25:10.899Z,99702.71
2019-02-10T05:27:41.083Z,99680.98
2019-02-10T05:30:11.316Z,99669.66
2019-02-10T05:32:41.486Z,99672.71
2019-02-10T05:35:11.742Z,99664.02
2019-02-10T05:37:45.809Z,99656.65
2019-02-10T05:40:16.363Z,99652.32
2019-02-10T05:42:46.875Z,99641.89
2019-02-10T05:45:18.211Z,99637.12
2019-02-10T05:47:48.626Z,99617.56
2019-02-10T05:50:19.152Z,99612.34
2019-02-10T05:52:49.604Z,99603.66
2019-02-10T05:55:20.285Z,99585.84
2019-02-10T05:57:50.765Z,99580.19
2019-02-10T06:00:21.394Z,99576.72
2019-02-10T06:02:51.957Z,99557.64
2019-02-10T06:05:25.765Z,99548.07
2019-02-10T06:07:56.182Z,99552.42
2019-02-10T06:10:26.685Z,99537.23
2019-02-10T06:12:58.040Z,99525.05
2019-02-10T06:15:28.793Z,99520.28
2019-02-10T06:17:59.446Z,99508.10
2019-02-10T06:20:29.744Z,99497.67
2019-02-10T06:23:00.358Z,99491.16
2019-02-10T06:25:30.795Z,99482.88
2019-02-10T06:28:01.446Z,99475.51
2019-02-10T06:30:31.934Z,99459.01
2019-02-10T06:33:02.461Z,99451.22
2019-02-10T06:35:32.939Z,99446.91
2019-02-10T06:38:03.453Z,99429.97
2019-02-10T06:40:33.852Z,99425.19
2019-02-10T06:43:04.093Z,99410.86
2019-02-10T06:45:34.281Z,99391.77
2019-02-10T06:48:04.582Z,99386.09
2019-02-10T06:50:34.708Z,99383.08
2019-02-10T06:53:04.938Z,99373.96
2019-02-10T06:55:35.129Z,99375.27
2019-02-10T06:58:06.655Z,99365.73
2019-02-10T07:00:50.422Z,99353.15
2019-02-10T07:03:45.614Z,99345.73
2019-02-10T07:06:16.395Z,99339.67
2019-02-10T07:08:47.160Z,99332.30
2019-02-10T07:11:17.529Z,99322.77
2019-02-10T07:13:51.754Z,99312.75
2019-02-10T07:17:08.708Z,99311.40
2019-02-10T07:20:40.858Z,99300.97
2019-02-10T07:23:57.104Z,99293.64
2019-02-10T07:27:31.089Z,99276.77
2019-02-10T07:30:46.569Z,99274.16
2019-02-10T07:34:01.425Z,99272.45
2019-02-10T07:37:10.630Z,99261.62
2019-02-10T07:40:27.443Z,99243.38
2019-02-10T07:43:43.237Z,99228.19
2019-02-10T07:47:01.240Z,99219.52
2019-02-10T07:50:17.419Z,99206.05
2019-02-10T07:53:45.689Z,99199.58
2019-02-10T07:57:24.935Z,99190.46
2019-02-10T08:00:31.310Z,99186.56
2019-02-10T08:03:41.589Z,99170.53
2019-02-10T08:07:02.407Z,99160.56
2019-02-10T08:10:25.012Z,99147.13
2019-02-10T08:13:12.482Z,99131.06
2019-02-10T08:16:43.086Z,99107.66
2019-02-10T08:20:09.917Z,99083.36
2019-02-10T08:23:33.246Z,99056.47
2019-02-10T08:32:10.971Z,99052.86
2019-02-10T08:35:29.500Z,99048.56
2019-02-10T08:39:05.578Z,99033.06
2019-02-10T08:42:22.118Z,99020.70
2019-02-10T08:45:24.930Z,99008.81
2019-02-10T08:49:04.287Z,99000.48
2019-02-10T08:52:05.512Z,98989.53
2019-02-10T08:54:35.731Z,98994.26
2019-02-10T08:57:15.008Z,98991.54
2019-02-10T08:59:56.529Z,98987.08
2019-02-10T09:02:30.096Z,98981.80
2019-02-10T09:05:03.618Z,98977.41
2019-02-10T09:07:35.014Z,98976.95
2019-02-10T09:10:05.963Z,98958.20
2019-02-10T09:12:36.594Z,98946.90
2019-02-10T09:15:12.149Z,98935.55
2019-02-10T09:17:44.829Z,98927.67
2019-02-10T09:20:15.209Z,98911.09
2019-02-10T09:22:45.385Z,98904.02
2019-02-10T09:25:15.752Z,98901.33
2019-02-10T09:27:46.017Z,98899.09
2019-02-10T09:30:17.420Z,98881.60
2019-02-10T09:32:47.682Z,98876.31
2019-02-10T09:35:17.924Z,98864.07
2019-02-10T09:37:48.304Z,98851.36
2019-02-10T09:40:18.654Z,98844.37
2019-02-10T09:42:51.476Z,98831.30
2019-02-10T09:45:26.429Z,98820.80
2019-02-10T09:47:56.948Z,98820.77
2019-02-10T09:50:32.774Z,98818.97
2019-02-10T09:53:05.838Z,98806.30
2019-02-10T09:55:36.181Z,98791.91
2019-02-10T09:58:07.034Z,98786.22
2019-02-10T10:00:37.342Z,98781.83
2019-02-10T10:03:17.045Z,98773.55
2019-02-10T10:05:49.259Z,98778.19
2019-02-10T10:08:19.263Z,98774.64
2019-02-10T10:10:49.614Z,98778.93
2019-02-10T10:13:20.080Z,98772.36
2019-02-10T10:15:53.121Z,98766.15
2019-02-10T10:18:28.170Z,98754.35
2019-02-10T10:20:57.823Z,98739.97
2019-02-10T10:23:33.838Z,98727.29
2019-02-10T10:26:09.196Z,98727.69
2019-02-10T10:28:48.904Z,98730.30
2019-02-10T10:31:19.309Z,98728.11
2019-02-10T10:33:50.163Z,98727.20
2019-02-10T10:36:23.757Z,98721.05
2019-02-10T10:38:55.950Z,98706.58
2019-02-10T10:41:26.201Z,98703.45
2019-02-10T10:43:59.153Z,98711.20
2019-02-10T10:46:31.340Z,98699.79
2019-02-10T10:49:08.548Z,98702.25
2019-02-10T10:51:42.831Z,98688.59
2019-02-10T10:54:22.505Z,98687.44
2019-02-10T10:56:55.953Z,98675.44
2019-02-10T10:59:26.253Z,98669.96
2019-02-10T11:01:58.573Z,98664.58
2019-02-10T11:04:37.873Z,98647.42
2019-02-10T11:07:03.682Z,98642.81
2019-02-10T11:09:35.862Z,98653.56
2019-02-10T11:12:18.449Z,98659.12
2019-02-10T11:14:57.973Z,98658.10
2019-02-10T11:17:28.302Z,98654.50
2019-02-10T11:20:02.317Z,98660.88
2019-02-10T11:22:32.538Z,98666.78
2019-02-10T11:25:02.794Z,98664.03
2019-02-10T11:27:33.837Z,98653.04
2019-02-10T11:30:04.354Z,98652.44
2019-02-10T11:32:34.752Z,98656.26
2019-02-10T11:35:07.646Z,98654.88
2019-02-10T11:37:38.109Z,98643.81
2019-02-10T11:40:11.525Z,98652.94
2019-02-10T11:42:46.945Z,98650.35
2019-02-10T11:45:17.380Z,98648.20
2019-02-10T11:47:47.796Z,98644.66
2019-02-10T11:50:20.041Z,98642.40
2019-02-10T11:52:52.029Z,98638.79
2019-02-10T11:55:22.471Z,98640.34
2019-02-10T11:57:52.903Z,98652.01
2019-02-10T12:00:23.222Z,98651.93
2019-02-10T12:02:53.554Z,98636.37
2019-02-10T12:05:23.916Z,98641.76
2019-02-10T12:07:54.241Z,98641.41
2019-02-10T12:10:24.501Z,98632.78
2019-02-10T12:12:57.549Z,98632.08
2019-02-10T12:15:27.815Z,98638.23
2019-02-10T12:17:58.014Z,98630.17
2019-02-10T12:20:28.456Z,98624.77
2019-02-10T12:22:58.711Z,98626.70
2019-02-10T12:25:28.945Z,98626.78
2019-02-10T12:27:59.269Z,98629.59
2019-02-10T12:30:29.509Z,98617.97
2019-02-10T12:32:59.687Z,98613.23
2019-02-10T12:35:29.882Z,98615.84
2019-02-10T12:38:00.158Z,98622.88
2019-02-10T12:40:30.464Z,98620.86
2019-02-10T12:43:00.784Z,98622.59
2019-02-10T12:45:31.257Z,98635.30
2019-02-10T12:48:01.731Z,98630.17
2019-02-10T12:50:32.448Z,98625.54
2019-02-10T12:53:10.247Z,98619.00
2019-02-10T12:56:17.390Z,98608.48
2019-02-10T12:58:18.093Z,98616.78
2019-02-10T13:00:51.635Z,98625.11
2019-02-10T13:03:21.926Z,98619.07
2019-02-10T13:05:52.328Z,98623.55
2019-02-10T13:08:46.603Z,98617.51
2019-02-10T13:11:59.611Z,98612.67
2019-02-10T13:14:19.836Z,98618.84
2019-02-10T13:16:49.666Z,98609.11
2019-02-10T13:19:22.959Z,98614.47
2019-02-10T13:22:04.204Z,98619.73
2019-02-10T13:24:34.560Z,98626.72
2019-02-10T13:27:04.937Z,98625.86
2019-02-10T13:29:38.971Z,98626.22
2019-02-10T13:32:12.006Z,98633.25
2019-02-10T13:34:42.354Z,98632.52
2019-02-10T13:37:16.794Z,98630.56
2019-02-10T13:39:51.824Z,98632.74
2019-02-10T13:42:22.511Z,98635.88
2019-02-10T13:44:54.875Z,98637.18
2019-02-10T13:47:28.986Z,98645.44
2019-02-10T13:50:03.768Z,98652.45
2019-02-10T13:52:34.526Z,98655.16
2019-02-10T13:55:05.085Z,98652.28
2019-02-10T13:57:36.712Z,98656.25
2019-02-10T14:00:11.998Z,98662.41
2019-02-10T14:02:46.687Z,98667.75
2019-02-10T14:05:17.080Z,98669.88
2019-02-10T14:07:50.997Z,98676.38
2019-02-10T14:10:25.797Z,98686.12
2019-02-10T14:12:55.296Z,98689.84
2019-02-10T14:15:41.331Z,98697.55
2019-02-10T14:18:07.259Z,98711.30
2019-02-10T14:20:42.773Z,98716.77
2019-02-10T14:23:15.721Z,98726.48
2019-02-10T14:25:46.003Z,98738.38
2019-02-10T14:28:16.276Z,98744.69
2019-02-10T14:30:46.526Z,98757.47
2019-02-10T14:33:16.890Z,98765.13
2019-02-10T14:35:50.124Z,98780.97
2019-02-10T14:38:24.734Z,98788.11
2019-02-10T14:40:55.153Z,98803.47
2019-02-10T14:43:25.463Z,98807.98
2019-02-10T14:45:55.732Z,98810.38
2019-02-10T14:48:26.317Z,98829.70
2019-02-10T14:50:56.690Z,98839.82
2019-02-10T14:53:31.220Z,98839.95
2019-02-10T14:56:01.545Z,98852.59
2019-02-10T14:58:34.224Z,98860.91
2019-02-10T15:01:04.441Z,98859.64
2019-02-10T15:03:34.695Z,98864.85
2019-02-10T15:06:04.974Z,98877.06
2019-02-10T15:08:35.126Z,98887.99
2019-02-10T15:11:05.396Z,98881.97
2019-02-10T15:13:36.134Z,98890.22
2019-02-10T15:16:06.724Z,98894.11
2019-02-10T15:18:53.561Z,98895.42
2019-02-10T15:21:23.901Z,98907.64
2019-02-10T15:23:54.114Z,98908.63
2019-02-10T15:26:24.328Z,98927.34
2019-02-10T15:28:54.675Z,98916.14
2019-02-10T15:31:27.521Z,98926.62
2019-02-10T15:33:57.066Z,98933.28
2019-02-10T15:36:28.851Z,98944.19
2019-02-10T15:39:00.565Z,98945.52
2019-02-10T15:41:33.878Z,98949.87
2019-02-10T15:44:07.232Z,98951.23
2019-02-10T15:46:39.112Z,98965.56
2019-02-10T15:49:11.294Z,98969.47
2019-02-10T15:51:42.001Z,98977.72
2019-02-10T15:54:17.441Z,98979.11
2019-02-10T15:56:49.768Z,98997.30
2019-02-10T15:59:20.316Z,98998.64
2019-02-10T16:01:50.865Z,98998.27
2019-02-10T16:04:21.575Z,99013.49
2019-02-10T16:06:52.100Z,99020.02
2019-02-10T16:09:22.725Z,99015.72
2019-02-10T16:11:53.354Z,99016.60
2019-02-10T16:14:25.129Z,99019.61
2019-02-10T16:16:55.668Z,99031.33
2019-02-10T16:19:26.207Z,99037.41
2019-02-10T16:21:56.687Z,99042.20
2019-02-10T16:24:27.315Z,99048.27
2019-02-10T16:26:57.865Z,99057.39
2019-02-10T16:29:28.643Z,99056.53
2019-02-10T16:31:59.232Z,99062.19
2019-02-10T16:34:29.871Z,99069.98
2019-02-10T16:37:00.504Z,99077.36
2019-02-10T16:39:31.061Z,99079.98
2019-02-10T16:42:01.623Z,99094.67
2019-02-10T16:44:34.965Z,99096.41
2019-02-10T16:47:05.669Z,99103.75
2019-02-10T16:49:36.214Z,99106.81
2019-02-10T16:52:07.452Z,99110.71
2019-02-10T16:54:38.075Z,99131.89
2019-02-10T16:57:08.656Z,99124.59
2019-02-10T16:59:39.299Z,99132.81
2019-02-10T17:02:10.161Z,99138.00
2019-02-10T17:04:42.260Z,99149.70
2019-02-10T17:07:12.956Z,99157.04
2019-02-10T17:09:50.766Z,99164.38
2019-02-10T17:12:21.135Z,99166.99
2019-02-10T17:14:53.056Z,99175.22
2019-02-10T17:17:23.656Z,99180.40
2019-02-10T17:19:54.261Z,99181.27
2019-02-10T17:22:25.055Z,99188.61
2019-02-10T17:24:55.824Z,99194.64
2019-02-10T17:27:26.495Z,99210.22
2019-02-10T17:29:57.316Z,99208.92
2019-02-10T17:32:28.009Z,99213.27
2019-02-10T17:34:58.790Z,99224.50
2019-02-10T17:37:29.605Z,99226.69
2019-02-10T17:40:00.252Z,99226.23
2019-02-10T17:42:32.492Z,99236.62
2019-02-10T17:45:03.190Z,99247.02
2019-02-10T17:47:35.783Z,99253.06
2019-02-10T17:50:09.811Z,99253.07
2019-02-10T17:52:40.352Z,99260.86
2019-02-10T17:55:11.322Z,99269.52
2019-02-10T17:57:41.915Z,99272.98
2019-02-10T18:00:14.907Z,99271.23
2019-02-10T18:02:45.355Z,99279.02
2019-02-10T18:05:15.693Z,99288.53
2019-02-10T18:07:45.976Z,99296.75
2019-02-10T18:10:16.344Z,99308.00
2019-02-10T18:12:46.585Z,99314.91
2019-02-10T18:15:44.755Z,99321.41
2019-02-10T18:18:40.652Z,99333.10
2019-02-10T18:21:47.907Z,99337.44
2019-02-10T18:24:26.360Z,99340.89
2019-02-10T18:27:27.732Z,99353.87
2019-02-10T18:30:19.028Z,99355.19
2019-02-10T18:33:07.327Z,99363.38
2019-02-10T18:35:53.615Z,99375.09
2019-02-10T18:38:32.855Z,99373.77
2019-02-10T18:41:14.603Z,99382.88
2019-02-10T18:44:02.624Z,99388.92
2019-02-10T18:46:37.843Z,99390.23
2019-02-10T18:49:16.675Z,99397.16
2019-02-10T18:51:58.319Z,99405.38
2019-02-10T18:54:47.715Z,99411.89
2019-02-10T18:57:41.896Z,99419.22
2019-02-10T19:00:19.560Z,99426.59
2019-02-10T19:03:08.572Z,99430.05
2019-02-10T19:05:45.325Z,99439.59
2019-02-10T19:08:31.755Z,99443.50
2019-02-10T19:11:35.131Z,99451.29
2019-02-10T19:14:44.511Z,99456.47
2019-02-10T19:17:24.183Z,99464.27
2019-02-10T19:20:22.315Z,99468.61
2019-02-10T19:23:11.893Z,99471.19
2019-02-10T19:26:01.849Z,99486.36
2019-02-10T19:28:42.100Z,99498.05
2019-02-10T19:31:30.027Z,99499.36
2019-02-10T19:34:28.658Z,99505.42
2019-02-10T19:37:36.167Z,99508.02
2019-02-10T19:40:18.919Z,99519.70
2019-02-10T19:43:01.233Z,99519.70
2019-02-10T19:45:51.874Z,99528.39
2019-02-10T19:48:56.388Z,99533.58
2019-02-10T19:51:48.301Z,99541.39
2019-02-10T19:54:27.484Z,99551.79
2019-02-10T19:57:12.398Z,99551.81
2019-02-10T20:00:20.741Z,99556.57
2019-02-10T20:03:04.026Z,99566.96
2019-02-10T20:05:50.704Z,99574.33
2019-02-10T20:08:34.997Z,99579.52
2019-02-10T20:11:27.112Z,99589.07
2019-02-10T20:14:07.600Z,99597.31
2019-02-10T20:16:56.812Z,99603.80
2019-02-10T20:19:44.474Z,99620.26
2019-02-10T20:22:46.194Z,99623.72
2019-02-10T20:25:25.682Z,99629.81
2019-02-10T20:28:03.360Z,99640.62
2019-02-10T20:31:16.172Z,99654.06
2019-02-10T20:34:04.669Z,99659.29
2019-02-10T20:36:48.434Z,99672.28
2019-02-10T20:39:33.991Z,99688.31
2019-02-10T20:42:22.399Z,99696.55
2019-02-10T20:45:10.512Z,99704.80
2019-02-10T20:47:58.588Z,99714.78
2019-02-10T20:50:44.959Z,99731.28
2019-02-10T20:53:43.255Z,99729.09
2019-02-10T20:56:23.052Z,99740.83
2019-02-10T20:59:19.608Z,99750.80
2019-02-10T21:02:03.297Z,99753.84
2019-02-10T21:04:57.590Z,99773.80
2019-02-10T21:07:42.675Z,99784.20
2019-02-10T21:10:29.807Z,99796.34
2019-02-10T21:13:20.325Z,99806.34
2019-02-10T21:16:14.042Z,99808.92
2019-02-10T21:18:56.471Z,99818.02
2019-02-10T21:21:46.011Z,99821.47
2019-02-10T21:24:33.879Z,99828.42
2019-02-10T21:27:12.087Z,99837.05
2019-02-10T21:30:01.371Z,99840.95
2019-02-10T21:32:54.384Z,99852.66
2019-02-10T21:35:31.376Z,99861.31
2019-02-10T21:38:35.597Z,99867.38
2019-02-10T21:41:25.929Z,99874.74
2019-02-10T21:44:22.933Z,99886.87
2019-02-10T21:47:13.737Z,99894.67
2019-02-10T21:49:44.298Z,99905.53
2019-02-10T21:52:19.213Z,99912.05
2019-02-10T21:57:28.339Z,99917.70
2019-02-10T21:59:58.815Z,99922.88
2019-02-10T22:02:29.286Z,99935.03
2019-02-10T22:05:02.088Z,99946.30
2019-02-10T22:07:32.720Z,99954.53
2019-02-10T22:10:07.899Z,99963.64
2019-02-10T22:12:39.652Z,99961.02
2019-02-10T22:15:15.452Z,99968.83
2019-02-10T22:17:47.587Z,99977.92
2019-02-10T22:20:17.942Z,99981.83
2019-02-10T22:22:48.227Z,99992.67
2019-02-10T22:25:18.483Z,99993.53
2019-02-10T22:27:48.849Z,100001.78
2019-02-10T22:30:19.170Z,100011.33
2019-02-10T22:32:49.493Z,100019.15
2019-02-10T22:35:19.830Z,100027.37
2019-02-10T22:37:50.229Z,100030.02
2019-02-10T22:40:20.464Z,100036.52
2019-02-10T22:42:55.393Z,100049.10
2019-02-10T22:45:25.750Z,100052.16
2019-02-10T22:47:56.039Z,100064.28
2019-02-10T22:50:26.290Z,100064.32
2019-02-10T22:52:56.566Z,100078.21
2019-02-10T22:55:27.043Z,100082.11
2019-02-10T22:57:57.108Z,100092.95
2019-02-10T23:00:51.382Z,100092.11
2019-02-10T23:03:21.613Z,100107.72
2019-02-10T23:05:51.874Z,100114.23
2019-02-10T23:08:22.044Z,100125.48
2019-02-10T23:10:52.375Z,100128.56
2019-02-10T23:13:22.985Z,100130.31
2019-02-10T23:15:53.025Z,100137.72
2019-02-10T23:18:28.531Z,100154.66
2019-02-10T23:20:59.080Z,100149.04
2019-02-10T23:23:29.298Z,100159.44
2019-02-10T23:25:59.440Z,100160.33
2019-02-10T23:28:29.761Z,100169.85
2019-02-10T23:31:00.005Z,100178.48
2019-02-10T23:33:30.130Z,100189.34
2019-02-10T23:36:00.311Z,100198.88
2019-02-10T23:38:30.450Z,100199.77
2019-02-10T23:41:00.694Z,100208.45
2019-02-10T23:43:30.837Z,100227.16
2019-02-10T23:46:00.974Z,100222.38
2019-02-10T23:48:31.068Z,100239.78
2019-02-10T23:51:01.262Z,100243.19
2019-02-10T23:53:31.403Z,100255.75
2019-02-10T23:56:01.752Z,100258.80
2019-02-10T23:58:31.964Z,100257.05
